sensor_id;sensor_type;location;lat;lon;timestamp;temperature;humidity
16347;DHT22;8283;48.504;13.734;2023-01-28T00:02:18;6.30;67.00
16347;DHT22;8283;48.504;13.734;2023-01-28T00:05:03;6.30;66.90
16347;DHT22;8283;48.504;13.734;2023-01-28T00:07:49;6.30;67.00
16347;DHT22;8283;48.504;13.734;2023-01-28T00:10:33;6.30;67.10
16347;DHT22;8283;48.504;13.734;2023-01-28T00:13:17;6.30;66.90
16347;DHT22;8283;48.504;13.734;2023-01-28T00:16:04;6.20;67.00
16347;DHT22;8283;48.504;13.734;2023-01-28T00:18:50;6.30;67.00
16347;DHT22;8283;48.504;13.734;2023-01-28T00:21:35;6.20;66.90
16347;DHT22;8283;48.504;13.734;2023-01-28T00:24:19;6.20;67.00
16347;DHT22;8283;48.504;13.734;2023-01-28T00:27:03;6.20;66.90
16347;DHT22;8283;48.504;13.734;2023-01-28T00:29:48;6.20;66.90
16347;DHT22;8283;48.504;13.734;2023-01-28T00:32:32;6.20;66.90
16347;DHT22;8283;48.504;13.734;2023-01-28T00:35:16;6.20;66.90
16347;DHT22;8283;48.504;13.734;2023-01-28T00:38:00;6.20;66.90
16347;DHT22;8283;48.504;13.734;2023-01-28T00:40:46;6.20;66.80
16347;DHT22;8283;48.504;13.734;2023-01-28T00:43:30;6.20;66.90
16347;DHT22;8283;48.504;13.734;2023-01-28T00:46:15;6.20;66.80
16347;DHT22;8283;48.504;13.734;2023-01-28T00:48:59;6.30;67.00
16347;DHT22;8283;48.504;13.734;2023-01-28T00:51:44;6.30;66.90
16347;DHT22;8283;48.504;13.734;2023-01-28T00:54:29;6.30;66.80
16347;DHT22;8283;48.504;13.734;2023-01-28T00:57:13;6.30;66.90
16347;DHT22;8283;48.504;13.734;2023-01-28T00:59:58;6.30;66.90
16347;DHT22;8283;48.504;13.734;2023-01-28T01:02:43;6.30;66.80
16347;DHT22;8283;48.504;13.734;2023-01-28T01:05:29;6.30;66.70
16347;DHT22;8283;48.504;13.734;2023-01-28T01:08:13;6.30;66.70
16347;DHT22;8283;48.504;13.734;2023-01-28T01:10:58;6.30;66.70
16347;DHT22;8283;48.504;13.734;2023-01-28T01:13:42;6.40;66.80
16347;DHT22;8283;48.504;13.734;2023-01-28T01:16:29;6.40;66.70
16347;DHT22;8283;48.504;13.734;2023-01-28T01:19:16;6.40;66.70
16347;DHT22;8283;48.504;13.734;2023-01-28T01:22:00;6.40;66.70
16347;DHT22;8283;48.504;13.734;2023-01-28T01:24:46;6.40;66.80
16347;DHT22;8283;48.504;13.734;2023-01-28T01:27:33;6.40;66.80
16347;DHT22;8283;48.504;13.734;2023-01-28T01:30:17;6.40;66.70
16347;DHT22;8283;48.504;13.734;2023-01-28T01:33:02;6.40;66.80
16347;DHT22;8283;48.504;13.734;2023-01-28T01:35:52;6.30;66.60
16347;DHT22;8283;48.504;13.734;2023-01-28T01:38:37;6.40;66.80
16347;DHT22;8283;48.504;13.734;2023-01-28T01:41:30;6.40;66.70
16347;DHT22;8283;48.504;13.734;2023-01-28T01:47:45;6.40;67.10
16347;DHT22;8283;48.504;13.734;2023-01-28T01:50:50;6.30;66.90
16347;DHT22;8283;48.504;13.734;2023-01-28T01:53:43;6.30;66.90
16347;DHT22;8283;48.504;13.734;2023-01-28T01:56:33;6.30;66.80
16347;DHT22;8283;48.504;13.734;2023-01-28T01:59:25;6.30;66.90
16347;DHT22;8283;48.504;13.734;2023-01-28T02:02:11;6.30;66.90
16347;DHT22;8283;48.504;13.734;2023-01-28T02:04:56;6.30;66.80
16347;DHT22;8283;48.504;13.734;2023-01-28T02:07:40;6.30;66.90
16347;DHT22;8283;48.504;13.734;2023-01-28T02:10:26;6.30;67.00
16347;DHT22;8283;48.504;13.734;2023-01-28T02:13:10;6.20;66.90
16347;DHT22;8283;48.504;13.734;2023-01-28T02:15:57;6.20;67.00
16347;DHT22;8283;48.504;13.734;2023-01-28T02:18:42;6.20;66.90
16347;DHT22;8283;48.504;13.734;2023-01-28T02:34:43;6.30;67.20
16347;DHT22;8283;48.504;13.734;2023-01-28T02:37:52;6.30;67.10
16347;DHT22;8283;48.504;13.734;2023-01-28T02:40:42;6.30;67.10
16347;DHT22;8283;48.504;13.734;2023-01-28T02:43:46;6.30;66.90
16347;DHT22;8283;48.504;13.734;2023-01-28T02:49:45;6.30;66.90
16347;DHT22;8283;48.504;13.734;2023-01-28T02:59:01;6.40;66.80
16347;DHT22;8283;48.504;13.734;2023-01-28T03:02:28;6.40;66.80
16347;DHT22;8283;48.504;13.734;2023-01-28T03:08:09;6.40;67.00
16347;DHT22;8283;48.504;13.734;2023-01-28T03:11:13;6.30;67.10
16347;DHT22;8283;48.504;13.734;2023-01-28T03:14:17;6.20;66.80
16347;DHT22;8283;48.504;13.734;2023-01-28T03:17:36;6.20;66.80
16347;DHT22;8283;48.504;13.734;2023-01-28T03:27:49;6.20;67.10
16347;DHT22;8283;48.504;13.734;2023-01-28T03:31:09;6.20;67.20
16347;DHT22;8283;48.504;13.734;2023-01-28T03:34:16;6.20;67.10
16347;DHT22;8283;48.504;13.734;2023-01-28T03:37:21;6.20;67.00
16347;DHT22;8283;48.504;13.734;2023-01-28T03:40:27;6.20;67.00
16347;DHT22;8283;48.504;13.734;2023-01-28T03:43:12;6.20;67.10
16347;DHT22;8283;48.504;13.734;2023-01-28T03:45:56;6.20;66.90
16347;DHT22;8283;48.504;13.734;2023-01-28T03:48:41;6.20;66.90
16347;DHT22;8283;48.504;13.734;2023-01-28T03:51:28;6.20;67.00
16347;DHT22;8283;48.504;13.734;2023-01-28T03:54:13;6.20;66.90
16347;DHT22;8283;48.504;13.734;2023-01-28T03:57:00;6.30;67.00
16347;DHT22;8283;48.504;13.734;2023-01-28T03:59:44;6.30;67.10
16347;DHT22;8283;48.504;13.734;2023-01-28T04:02:29;6.30;67.00
16347;DHT22;8283;48.504;13.734;2023-01-28T04:05:14;6.30;66.90
16347;DHT22;8283;48.504;13.734;2023-01-28T04:08:05;6.30;66.80
16347;DHT22;8283;48.504;13.734;2023-01-28T04:11:11;6.40;66.80
16347;DHT22;8283;48.504;13.734;2023-01-28T04:14:04;6.40;66.80
16347;DHT22;8283;48.504;13.734;2023-01-28T04:16:59;6.40;66.80
16347;DHT22;8283;48.504;13.734;2023-01-28T04:19:43;6.40;66.70
16347;DHT22;8283;48.504;13.734;2023-01-28T04:22:28;6.40;66.70
16347;DHT22;8283;48.504;13.734;2023-01-28T04:25:12;6.40;66.70
16347;DHT22;8283;48.504;13.734;2023-01-28T04:27:57;6.40;66.50
16347;DHT22;8283;48.504;13.734;2023-01-28T04:30:44;6.40;66.50
16347;DHT22;8283;48.504;13.734;2023-01-28T04:34:00;6.40;66.70
16347;DHT22;8283;48.504;13.734;2023-01-28T04:36:57;6.40;66.70
16347;DHT22;8283;48.504;13.734;2023-01-28T04:40:09;6.40;66.70
16347;DHT22;8283;48.504;13.734;2023-01-28T04:43:08;6.40;66.60
16347;DHT22;8283;48.504;13.734;2023-01-28T04:46:06;6.40;66.50
16347;DHT22;8283;48.504;13.734;2023-01-28T04:49:10;6.40;66.40
16347;DHT22;8283;48.504;13.734;2023-01-28T04:52:14;6.40;66.40
16347;DHT22;8283;48.504;13.734;2023-01-28T04:55:18;6.40;66.40
16347;DHT22;8283;48.504;13.734;2023-01-28T04:58:03;6.40;66.40
16347;DHT22;8283;48.504;13.734;2023-01-28T05:00:57;6.40;66.30
16347;DHT22;8283;48.504;13.734;2023-01-28T05:03:42;6.40;66.40
16347;DHT22;8283;48.504;13.734;2023-01-28T05:06:31;6.30;66.40
16347;DHT22;8283;48.504;13.734;2023-01-28T05:09:20;6.60;66.60
16347;DHT22;8283;48.504;13.734;2023-01-28T05:12:06;6.40;66.50
16347;DHT22;8283;48.504;13.734;2023-01-28T05:14:53;6.40;66.50
16347;DHT22;8283;48.504;13.734;2023-01-28T05:17:39;6.30;66.40
16347;DHT22;8283;48.504;13.734;2023-01-28T05:20:24;6.30;66.40
16347;DHT22;8283;48.504;13.734;2023-01-28T05:23:09;6.30;66.40
16347;DHT22;8283;48.504;13.734;2023-01-28T05:26:14;6.30;66.50
16347;DHT22;8283;48.504;13.734;2023-01-28T05:28:59;6.30;66.40
16347;DHT22;8283;48.504;13.734;2023-01-28T05:31:43;6.30;66.40
16347;DHT22;8283;48.504;13.734;2023-01-28T05:34:27;6.20;66.40
16347;DHT22;8283;48.504;13.734;2023-01-28T05:37:13;6.20;66.50
16347;DHT22;8283;48.504;13.734;2023-01-28T05:39:58;6.20;66.60
16347;DHT22;8283;48.504;13.734;2023-01-28T05:42:42;6.30;66.80
16347;DHT22;8283;48.504;13.734;2023-01-28T05:45:46;6.30;66.80
16347;DHT22;8283;48.504;13.734;2023-01-28T05:48:45;6.30;66.80
16347;DHT22;8283;48.504;13.734;2023-01-28T05:52:02;6.30;66.80
16347;DHT22;8283;48.504;13.734;2023-01-28T05:54:48;6.30;66.80
16347;DHT22;8283;48.504;13.734;2023-01-28T05:57:32;6.30;66.70
16347;DHT22;8283;48.504;13.734;2023-01-28T06:00:17;6.30;66.70
16347;DHT22;8283;48.504;13.734;2023-01-28T06:03:03;6.30;66.80
16347;DHT22;8283;48.504;13.734;2023-01-28T06:05:47;6.30;66.70
16347;DHT22;8283;48.504;13.734;2023-01-28T06:08:32;6.30;66.80
16347;DHT22;8283;48.504;13.734;2023-01-28T06:11:17;6.30;66.80
16347;DHT22;8283;48.504;13.734;2023-01-28T06:14:02;6.30;66.70
16347;DHT22;8283;48.504;13.734;2023-01-28T06:17:00;6.30;66.70
16347;DHT22;8283;48.504;13.734;2023-01-28T06:20:01;6.30;66.70
16347;DHT22;8283;48.504;13.734;2023-01-28T06:22:51;6.30;66.70
16347;DHT22;8283;48.504;13.734;2023-01-28T06:25:36;6.40;66.70
16347;DHT22;8283;48.504;13.734;2023-01-28T06:28:26;6.40;66.70
16347;DHT22;8283;48.504;13.734;2023-01-28T06:31:11;6.40;66.70
16347;DHT22;8283;48.504;13.734;2023-01-28T06:33:55;6.40;66.70
16347;DHT22;8283;48.504;13.734;2023-01-28T06:36:40;6.40;66.70
16347;DHT22;8283;48.504;13.734;2023-01-28T06:39:24;6.40;66.60
16347;DHT22;8283;48.504;13.734;2023-01-28T06:42:10;6.40;66.70
16347;DHT22;8283;48.504;13.734;2023-01-28T06:44:54;6.40;66.60
16347;DHT22;8283;48.504;13.734;2023-01-28T06:47:38;6.40;66.60
16347;DHT22;8283;48.504;13.734;2023-01-28T06:50:23;6.40;66.70
16347;DHT22;8283;48.504;13.734;2023-01-28T06:53:07;6.50;66.70
16347;DHT22;8283;48.504;13.734;2023-01-28T06:55:52;6.50;66.70
16347;DHT22;8283;48.504;13.734;2023-01-28T06:58:36;6.50;66.70
16347;DHT22;8283;48.504;13.734;2023-01-28T07:01:21;6.50;66.70
16347;DHT22;8283;48.504;13.734;2023-01-28T07:04:05;6.50;66.70
16347;DHT22;8283;48.504;13.734;2023-01-28T07:06:49;6.50;66.80
16347;DHT22;8283;48.504;13.734;2023-01-28T07:09:34;6.50;66.70
16347;DHT22;8283;48.504;13.734;2023-01-28T07:12:18;6.50;66.70
16347;DHT22;8283;48.504;13.734;2023-01-28T07:15:03;6.50;66.70
16347;DHT22;8283;48.504;13.734;2023-01-28T07:17:47;6.50;66.60
16347;DHT22;8283;48.504;13.734;2023-01-28T07:20:31;6.50;66.50
16347;DHT22;8283;48.504;13.734;2023-01-28T07:23:16;6.50;66.60
16347;DHT22;8283;48.504;13.734;2023-01-28T07:26:01;6.50;66.70
16347;DHT22;8283;48.504;13.734;2023-01-28T07:28:45;6.50;66.80
16347;DHT22;8283;48.504;13.734;2023-01-28T07:31:30;6.50;66.80
16347;DHT22;8283;48.504;13.734;2023-01-28T07:34:15;6.50;66.80
16347;DHT22;8283;48.504;13.734;2023-01-28T07:37:00;6.50;66.90
16347;DHT22;8283;48.504;13.734;2023-01-28T07:39:44;6.50;66.90
16347;DHT22;8283;48.504;13.734;2023-01-28T07:42:29;6.60;66.90
16347;DHT22;8283;48.504;13.734;2023-01-28T07:45:14;6.60;66.90
16347;DHT22;8283;48.504;13.734;2023-01-28T07:48:01;6.60;66.80
16347;DHT22;8283;48.504;13.734;2023-01-28T07:50:47;6.60;66.80
16347;DHT22;8283;48.504;13.734;2023-01-28T07:53:32;6.60;66.80
16347;DHT22;8283;48.504;13.734;2023-01-28T07:56:17;6.60;66.80
16347;DHT22;8283;48.504;13.734;2023-01-28T07:59:01;6.70;66.80
16347;DHT22;8283;48.504;13.734;2023-01-28T08:01:46;6.70;66.90
16347;DHT22;8283;48.504;13.734;2023-01-28T08:04:30;6.70;66.90
16347;DHT22;8283;48.504;13.734;2023-01-28T08:07:14;6.70;66.90
16347;DHT22;8283;48.504;13.734;2023-01-28T08:09:58;6.70;66.90
16347;DHT22;8283;48.504;13.734;2023-01-28T08:12:53;6.80;67.10
16347;DHT22;8283;48.504;13.734;2023-01-28T08:15:38;6.80;67.20
16347;DHT22;8283;48.504;13.734;2023-01-28T08:18:23;6.80;67.10
16347;DHT22;8283;48.504;13.734;2023-01-28T08:21:08;6.80;67.00
16347;DHT22;8283;48.504;13.734;2023-01-28T08:23:52;6.90;67.10
16347;DHT22;8283;48.504;13.734;2023-01-28T08:26:37;6.90;67.10
16347;DHT22;8283;48.504;13.734;2023-01-28T08:29:22;6.90;67.10
16347;DHT22;8283;48.504;13.734;2023-01-28T08:32:06;6.90;67.00
16347;DHT22;8283;48.504;13.734;2023-01-28T08:34:51;7.00;67.10
16347;DHT22;8283;48.504;13.734;2023-01-28T08:37:35;7.00;67.00
16347;DHT22;8283;48.504;13.734;2023-01-28T08:40:20;7.00;67.00
16347;DHT22;8283;48.504;13.734;2023-01-28T08:43:04;7.40;67.10
16347;DHT22;8283;48.504;13.734;2023-01-28T08:45:49;7.00;66.70
16347;DHT22;8283;48.504;13.734;2023-01-28T08:48:33;7.10;66.70
16347;DHT22;8283;48.504;13.734;2023-01-28T08:51:21;7.10;66.70
16347;DHT22;8283;48.504;13.734;2023-01-28T08:54:05;7.10;66.70
16347;DHT22;8283;48.504;13.734;2023-01-28T08:56:50;7.10;66.70
16347;DHT22;8283;48.504;13.734;2023-01-28T08:59:34;7.10;66.70
16347;DHT22;8283;48.504;13.734;2023-01-28T09:02:19;7.10;67.30
16347;DHT22;8283;48.504;13.734;2023-01-28T09:05:04;7.10;66.60
16347;DHT22;8283;48.504;13.734;2023-01-28T09:07:49;7.10;66.60
16347;DHT22;8283;48.504;13.734;2023-01-28T09:10:34;7.10;66.70
16347;DHT22;8283;48.504;13.734;2023-01-28T09:13:20;7.10;66.70
16347;DHT22;8283;48.504;13.734;2023-01-28T09:16:05;7.20;66.80
16347;DHT22;8283;48.504;13.734;2023-01-28T09:18:50;7.10;67.40
16347;DHT22;8283;48.504;13.734;2023-01-28T09:21:38;7.20;66.70
16347;DHT22;8283;48.504;13.734;2023-01-28T09:24:23;7.20;66.70
16347;DHT22;8283;48.504;13.734;2023-01-28T09:27:07;7.20;66.70
16347;DHT22;8283;48.504;13.734;2023-01-28T09:29:51;7.20;66.70
16347;DHT22;8283;48.504;13.734;2023-01-28T09:32:36;7.20;66.60
16347;DHT22;8283;48.504;13.734;2023-01-28T09:35:21;7.20;66.70
16347;DHT22;8283;48.504;13.734;2023-01-28T09:38:05;7.20;66.60
16347;DHT22;8283;48.504;13.734;2023-01-28T09:40:51;7.20;66.60
16347;DHT22;8283;48.504;13.734;2023-01-28T09:43:57;7.20;66.60
16347;DHT22;8283;48.504;13.734;2023-01-28T09:46:44;7.20;66.70
16347;DHT22;8283;48.504;13.734;2023-01-28T09:49:42;7.20;66.70
16347;DHT22;8283;48.504;13.734;2023-01-28T09:52:29;7.10;66.80
16347;DHT22;8283;48.504;13.734;2023-01-28T09:55:30;7.10;66.70
16347;DHT22;8283;48.504;13.734;2023-01-28T09:58:15;7.10;66.70
16347;DHT22;8283;48.504;13.734;2023-01-28T10:01:31;7.10;66.50
16347;DHT22;8283;48.504;13.734;2023-01-28T10:13:30;7.10;66.80
16347;DHT22;8283;48.504;13.734;2023-01-28T10:16:28;7.10;66.60
16347;DHT22;8283;48.504;13.734;2023-01-28T10:19:41;7.10;66.70
16347;DHT22;8283;48.504;13.734;2023-01-28T10:22:29;7.00;66.60
16347;DHT22;8283;48.504;13.734;2023-01-28T10:25:19;7.00;66.60
16347;DHT22;8283;48.504;13.734;2023-01-28T10:28:16;7.00;66.50
16347;DHT22;8283;48.504;13.734;2023-01-28T10:31:01;7.00;66.70
16347;DHT22;8283;48.504;13.734;2023-01-28T10:33:46;7.00;66.70
16347;DHT22;8283;48.504;13.734;2023-01-28T10:36:31;6.90;66.60
16347;DHT22;8283;48.504;13.734;2023-01-28T10:39:18;6.80;66.60
16347;DHT22;8283;48.504;13.734;2023-01-28T10:45:15;6.80;67.10
16347;DHT22;8283;48.504;13.734;2023-01-28T10:51:07;6.80;67.30
16347;DHT22;8283;48.504;13.734;2023-01-28T10:53:51;6.80;67.30
16347;DHT22;8283;48.504;13.734;2023-01-28T10:56:36;6.80;67.30
16347;DHT22;8283;48.504;13.734;2023-01-28T10:59:26;6.80;67.30
16347;DHT22;8283;48.504;13.734;2023-01-28T11:05:17;6.80;67.60
16347;DHT22;8283;48.504;13.734;2023-01-28T11:08:12;6.80;67.60
16347;DHT22;8283;48.504;13.734;2023-01-28T11:10:58;6.80;67.60
16347;DHT22;8283;48.504;13.734;2023-01-28T11:13:50;6.70;67.50
16347;DHT22;8283;48.504;13.734;2023-01-28T11:16:38;6.80;67.80
16347;DHT22;8283;48.504;13.734;2023-01-28T11:19:34;6.70;67.60
16347;DHT22;8283;48.504;13.734;2023-01-28T11:22:51;6.80;67.80
16347;DHT22;8283;48.504;13.734;2023-01-28T11:25:36;6.80;67.90
16347;DHT22;8283;48.504;13.734;2023-01-28T11:28:21;6.70;67.70
16347;DHT22;8283;48.504;13.734;2023-01-28T11:31:06;6.80;67.70
16347;DHT22;8283;48.504;13.734;2023-01-28T11:33:58;6.80;67.80
16347;DHT22;8283;48.504;13.734;2023-01-28T11:37:00;6.80;67.90
16347;DHT22;8283;48.504;13.734;2023-01-28T11:39:45;6.80;67.90
16347;DHT22;8283;48.504;13.734;2023-01-28T11:42:30;6.80;68.00
16347;DHT22;8283;48.504;13.734;2023-01-28T11:45:35;6.90;68.00
16347;DHT22;8283;48.504;13.734;2023-01-28T12:01:09;6.90;68.50
16347;DHT22;8283;48.504;13.734;2023-01-28T12:04:16;7.00;68.50
16347;DHT22;8283;48.504;13.734;2023-01-28T12:10:07;7.00;68.60
16347;DHT22;8283;48.504;13.734;2023-01-28T12:13:11;7.00;68.50
16347;DHT22;8283;48.504;13.734;2023-01-28T12:16:41;7.00;68.60
16347;DHT22;8283;48.504;13.734;2023-01-28T12:22:49;7.10;68.50
16347;DHT22;8283;48.504;13.734;2023-01-28T12:28:53;7.10;68.60
16347;DHT22;8283;48.504;13.734;2023-01-28T12:32:02;7.10;68.60
16347;DHT22;8283;48.504;13.734;2023-01-28T12:34:59;7.20;68.70
16347;DHT22;8283;48.504;13.734;2023-01-28T12:37:59;7.20;68.60
16347;DHT22;8283;48.504;13.734;2023-01-28T12:41:14;7.30;68.60
16347;DHT22;8283;48.504;13.734;2023-01-28T12:44:04;7.30;68.70
16347;DHT22;8283;48.504;13.734;2023-01-28T12:46:56;7.30;68.40
16347;DHT22;8283;48.504;13.734;2023-01-28T12:49:47;7.30;68.40
16347;DHT22;8283;48.504;13.734;2023-01-28T12:52:45;7.40;68.50
16347;DHT22;8283;48.504;13.734;2023-01-28T12:55:44;7.40;68.60
16347;DHT22;8283;48.504;13.734;2023-01-28T12:58:53;7.40;68.50
16347;DHT22;8283;48.504;13.734;2023-01-28T13:02:02;7.50;68.60
16347;DHT22;8283;48.504;13.734;2023-01-28T13:05:14;7.50;68.70
16347;DHT22;8283;48.504;13.734;2023-01-28T13:08:02;7.50;68.50
16347;DHT22;8283;48.504;13.734;2023-01-28T13:10:49;7.60;68.30
16347;DHT22;8283;48.504;13.734;2023-01-28T13:13:39;7.60;68.00
16347;DHT22;8283;48.504;13.734;2023-01-28T13:16:26;7.60;68.00
16347;DHT22;8283;48.504;13.734;2023-01-28T13:22:10;7.60;68.30
16347;DHT22;8283;48.504;13.734;2023-01-28T13:24:54;7.60;68.10
16347;DHT22;8283;48.504;13.734;2023-01-28T13:27:39;7.60;68.00
16347;DHT22;8283;48.504;13.734;2023-01-28T13:30:46;7.60;68.30
16347;DHT22;8283;48.504;13.734;2023-01-28T13:33:37;7.60;68.20
16347;DHT22;8283;48.504;13.734;2023-01-28T13:42:24;7.70;68.20
16347;DHT22;8283;48.504;13.734;2023-01-28T13:50:56;7.70;67.80
16347;DHT22;8283;48.504;13.734;2023-01-28T13:53:58;7.70;67.80
16347;DHT22;8283;48.504;13.734;2023-01-28T14:13:00;7.80;67.90
16347;DHT22;8283;48.504;13.734;2023-01-28T14:15:53;7.80;67.80
16347;DHT22;8283;48.504;13.734;2023-01-28T14:18:42;7.80;67.80
16347;DHT22;8283;48.504;13.734;2023-01-28T14:21:31;7.80;67.80
16347;DHT22;8283;48.504;13.734;2023-01-28T14:24:17;7.90;67.80
16347;DHT22;8283;48.504;13.734;2023-01-28T14:27:21;7.90;67.60
16347;DHT22;8283;48.504;13.734;2023-01-28T14:30:15;7.80;67.40
16347;DHT22;8283;48.504;13.734;2023-01-28T14:33:02;7.80;67.50
16347;DHT22;8283;48.504;13.734;2023-01-28T14:35:47;7.80;67.50
16347;DHT22;8283;48.504;13.734;2023-01-28T14:38:40;7.90;67.70
16347;DHT22;8283;48.504;13.734;2023-01-28T14:41:26;7.90;67.80
16347;DHT22;8283;48.504;13.734;2023-01-28T14:44:33;7.90;67.80
16347;DHT22;8283;48.504;13.734;2023-01-28T14:47:49;7.90;67.80
16347;DHT22;8283;48.504;13.734;2023-01-28T14:50:52;7.90;67.70
16347;DHT22;8283;48.504;13.734;2023-01-28T14:57:36;7.90;67.70
16347;DHT22;8283;48.504;13.734;2023-01-28T15:00:26;7.90;67.50
16347;DHT22;8283;48.504;13.734;2023-01-28T15:03:17;7.90;67.40
16347;DHT22;8283;48.504;13.734;2023-01-28T15:06:05;7.80;67.50
16347;DHT22;8283;48.504;13.734;2023-01-28T15:08:51;7.80;67.40
16347;DHT22;8283;48.504;13.734;2023-01-28T15:11:38;7.80;67.50
16347;DHT22;8283;48.504;13.734;2023-01-28T15:14:31;7.80;67.50
16347;DHT22;8283;48.504;13.734;2023-01-28T15:17:26;7.80;67.60
16347;DHT22;8283;48.504;13.734;2023-01-28T15:20:18;7.70;67.60
16347;DHT22;8283;48.504;13.734;2023-01-28T15:23:05;7.70;67.60
16347;DHT22;8283;48.504;13.734;2023-01-28T15:25:50;7.70;67.60
16347;DHT22;8283;48.504;13.734;2023-01-28T15:28:37;7.70;67.60
16347;DHT22;8283;48.504;13.734;2023-01-28T15:31:25;7.70;67.70
16347;DHT22;8283;48.504;13.734;2023-01-28T15:34:15;7.70;67.60
16347;DHT22;8283;48.504;13.734;2023-01-28T15:37:01;7.70;67.70
16347;DHT22;8283;48.504;13.734;2023-01-28T15:39:45;7.70;67.60
16347;DHT22;8283;48.504;13.734;2023-01-28T15:42:31;7.70;67.60
16347;DHT22;8283;48.504;13.734;2023-01-28T15:45:20;7.80;67.80
16347;DHT22;8283;48.504;13.734;2023-01-28T15:48:06;7.80;67.80
16347;DHT22;8283;48.504;13.734;2023-01-28T15:51:02;7.80;67.80
16347;DHT22;8283;48.504;13.734;2023-01-28T15:53:50;7.80;67.80
16347;DHT22;8283;48.504;13.734;2023-01-28T15:56:36;7.80;67.70
16347;DHT22;8283;48.504;13.734;2023-01-28T15:59:28;7.80;67.70
16347;DHT22;8283;48.504;13.734;2023-01-28T16:02:18;7.80;67.90
16347;DHT22;8283;48.504;13.734;2023-01-28T16:05:05;7.80;67.90
16347;DHT22;8283;48.504;13.734;2023-01-28T16:07:54;7.70;67.70
16347;DHT22;8283;48.504;13.734;2023-01-28T16:10:39;7.70;67.70
16347;DHT22;8283;48.504;13.734;2023-01-28T16:13:30;7.70;67.70
16347;DHT22;8283;48.504;13.734;2023-01-28T16:16:22;7.70;67.90
16347;DHT22;8283;48.504;13.734;2023-01-28T16:22:27;7.70;68.00
16347;DHT22;8283;48.504;13.734;2023-01-28T16:25:31;7.70;67.90
16347;DHT22;8283;48.504;13.734;2023-01-28T16:28:18;7.70;68.00
16347;DHT22;8283;48.504;13.734;2023-01-28T16:31:05;7.60;67.80
16347;DHT22;8283;48.504;13.734;2023-01-28T16:33:49;7.60;67.80
16347;DHT22;8283;48.504;13.734;2023-01-28T16:36:34;7.60;67.80
16347;DHT22;8283;48.504;13.734;2023-01-28T16:39:18;7.60;67.80
16347;DHT22;8283;48.504;13.734;2023-01-28T16:42:02;7.60;67.90
16347;DHT22;8283;48.504;13.734;2023-01-28T16:44:47;7.60;67.90
16347;DHT22;8283;48.504;13.734;2023-01-28T16:47:31;7.70;67.90
16347;DHT22;8283;48.504;13.734;2023-01-28T16:50:16;7.60;67.90
16347;DHT22;8283;48.504;13.734;2023-01-28T16:53:00;7.70;68.70
16347;DHT22;8283;48.504;13.734;2023-01-28T16:55:47;7.70;68.00
16347;DHT22;8283;48.504;13.734;2023-01-28T16:58:31;7.70;68.00
16347;DHT22;8283;48.504;13.734;2023-01-28T17:01:16;7.70;67.90
16347;DHT22;8283;48.504;13.734;2023-01-28T17:04:00;7.80;68.10
16347;DHT22;8283;48.504;13.734;2023-01-28T17:06:47;7.80;68.00
16347;DHT22;8283;48.504;13.734;2023-01-28T17:09:31;7.80;68.00
16347;DHT22;8283;48.504;13.734;2023-01-28T17:12:16;7.80;68.00
16347;DHT22;8283;48.504;13.734;2023-01-28T17:15:00;7.80;67.90
16347;DHT22;8283;48.504;13.734;2023-01-28T17:17:47;7.80;67.90
16347;DHT22;8283;48.504;13.734;2023-01-28T17:20:32;7.80;67.90
16347;DHT22;8283;48.504;13.734;2023-01-28T17:23:20;7.70;67.80
16347;DHT22;8283;48.504;13.734;2023-01-28T17:26:09;7.70;67.80
16347;DHT22;8283;48.504;13.734;2023-01-28T17:28:54;7.70;67.90
16347;DHT22;8283;48.504;13.734;2023-01-28T17:31:38;7.70;68.00
16347;DHT22;8283;48.504;13.734;2023-01-28T17:34:23;7.70;68.00
16347;DHT22;8283;48.504;13.734;2023-01-28T17:37:07;7.70;68.00
16347;DHT22;8283;48.504;13.734;2023-01-28T17:39:51;7.70;68.20
16347;DHT22;8283;48.504;13.734;2023-01-28T17:42:35;7.70;68.20
16347;DHT22;8283;48.504;13.734;2023-01-28T17:45:20;7.70;68.20
16347;DHT22;8283;48.504;13.734;2023-01-28T17:48:05;7.70;68.20
16347;DHT22;8283;48.504;13.734;2023-01-28T17:50:55;7.70;68.20
16347;DHT22;8283;48.504;13.734;2023-01-28T17:53:47;7.70;68.30
16347;DHT22;8283;48.504;13.734;2023-01-28T17:56:32;7.70;68.30
16347;DHT22;8283;48.504;13.734;2023-01-28T17:59:16;7.70;68.30
16347;DHT22;8283;48.504;13.734;2023-01-28T18:02:01;7.70;68.20
16347;DHT22;8283;48.504;13.734;2023-01-28T18:04:46;7.60;68.20
16347;DHT22;8283;48.504;13.734;2023-01-28T18:07:30;7.60;68.30
16347;DHT22;8283;48.504;13.734;2023-01-28T18:10:15;7.60;68.30
16347;DHT22;8283;48.504;13.734;2023-01-28T18:13:00;7.60;68.30
16347;DHT22;8283;48.504;13.734;2023-01-28T18:15:44;7.60;68.40
16347;DHT22;8283;48.504;13.734;2023-01-28T18:18:29;7.70;68.40
16347;DHT22;8283;48.504;13.734;2023-01-28T18:21:34;7.60;68.40
16347;DHT22;8283;48.504;13.734;2023-01-28T18:24:23;7.70;68.90
16347;DHT22;8283;48.504;13.734;2023-01-28T18:27:08;7.70;68.50
16347;DHT22;8283;48.504;13.734;2023-01-28T18:29:52;7.70;68.50
16347;DHT22;8283;48.504;13.734;2023-01-28T18:32:37;7.70;68.50
16347;DHT22;8283;48.504;13.734;2023-01-28T18:35:21;7.70;68.50
16347;DHT22;8283;48.504;13.734;2023-01-28T18:38:06;7.70;68.50
16347;DHT22;8283;48.504;13.734;2023-01-28T18:40:54;7.70;68.50
16347;DHT22;8283;48.504;13.734;2023-01-28T18:43:38;7.80;68.60
16347;DHT22;8283;48.504;13.734;2023-01-28T18:46:23;7.80;68.60
16347;DHT22;8283;48.504;13.734;2023-01-28T18:49:08;7.80;68.40
16347;DHT22;8283;48.504;13.734;2023-01-28T18:51:52;7.80;68.50
16347;DHT22;8283;48.504;13.734;2023-01-28T18:54:37;7.70;68.30
16347;DHT22;8283;48.504;13.734;2023-01-28T18:57:21;7.80;68.40
16347;DHT22;8283;48.504;13.734;2023-01-28T19:00:06;7.70;68.40
16347;DHT22;8283;48.504;13.734;2023-01-28T19:02:50;7.70;68.40
16347;DHT22;8283;48.504;13.734;2023-01-28T19:05:36;7.70;68.40
16347;DHT22;8283;48.504;13.734;2023-01-28T19:08:21;7.70;68.40
16347;DHT22;8283;48.504;13.734;2023-01-28T19:11:05;7.70;68.40
16347;DHT22;8283;48.504;13.734;2023-01-28T19:13:50;7.60;68.50
16347;DHT22;8283;48.504;13.734;2023-01-28T19:16:35;7.60;68.50
16347;DHT22;8283;48.504;13.734;2023-01-28T19:19:20;7.70;68.60
16347;DHT22;8283;48.504;13.734;2023-01-28T19:22:04;7.70;68.60
16347;DHT22;8283;48.504;13.734;2023-01-28T19:24:49;7.60;68.50
16347;DHT22;8283;48.504;13.734;2023-01-28T19:27:33;7.60;68.50
16347;DHT22;8283;48.504;13.734;2023-01-28T19:30:18;7.60;68.60
16347;DHT22;8283;48.504;13.734;2023-01-28T19:33:03;7.60;68.60
16347;DHT22;8283;48.504;13.734;2023-01-28T19:35:47;7.60;68.70
16347;DHT22;8283;48.504;13.734;2023-01-28T19:38:37;7.60;68.60
16347;DHT22;8283;48.504;13.734;2023-01-28T19:41:22;7.60;68.70
16347;DHT22;8283;48.504;13.734;2023-01-28T19:44:06;7.70;68.70
16347;DHT22;8283;48.504;13.734;2023-01-28T19:46:51;7.70;68.70
16347;DHT22;8283;48.504;13.734;2023-01-28T19:49:35;7.70;68.70
16347;DHT22;8283;48.504;13.734;2023-01-28T19:52:20;7.70;68.70
16347;DHT22;8283;48.504;13.734;2023-01-28T19:55:04;7.70;68.70
16347;DHT22;8283;48.504;13.734;2023-01-28T19:57:50;7.70;68.70
16347;DHT22;8283;48.504;13.734;2023-01-28T20:00:35;7.70;68.60